sensor_id;sensor_type;location;lat;lon;timestamp;temperature;humidity
27559;DHT22;15002;52.028;5.670;2023-07-02T00:02:16;21.00;99.90
27559;DHT22;15002;52.028;5.670;2023-07-02T00:04:44;21.00;99.90
27559;DHT22;15002;52.028;5.670;2023-07-02T00:07:09;21.10;99.90
27559;DHT22;15002;52.028;5.670;2023-07-02T00:09:35;21.00;99.90
27559;DHT22;15002;52.028;5.670;2023-07-02T00:12:01;21.10;99.90
27559;DHT22;15002;52.028;5.670;2023-07-02T00:14:26;21.10;99.90
27559;DHT22;15002;52.028;5.670;2023-07-02T00:16:52;21.10;99.90
27559;DHT22;15002;52.028;5.670;2023-07-02T00:19:18;21.00;99.90
27559;DHT22;15002;52.028;5.670;2023-07-02T00:21:43;21.30;99.90
27559;DHT22;15002;52.028;5.670;2023-07-02T00:24:09;21.40;99.90
27559;DHT22;15002;52.028;5.670;2023-07-02T00:26:36;21.10;99.90
27559;DHT22;15002;52.028;5.670;2023-07-02T00:29:02;20.70;99.90
27559;DHT22;15002;52.028;5.670;2023-07-02T00:31:29;20.40;99.90
27559;DHT22;15002;52.028;5.670;2023-07-02T00:33:55;20.10;99.90
27559;DHT22;15002;52.028;5.670;2023-07-02T00:36:21;20.10;99.90
27559;DHT22;15002;52.028;5.670;2023-07-02T00:38:48;20.10;99.90
27559;DHT22;15002;52.028;5.670;2023-07-02T00:41:14;19.80;99.90
27559;DHT22;15002;52.028;5.670;2023-07-02T00:43:40;19.90;99.90
27559;DHT22;15002;52.028;5.670;2023-07-02T00:46:18;19.90;99.90
27559;DHT22;15002;52.028;5.670;2023-07-02T00:48:49;19.90;99.90
27559;DHT22;15002;52.028;5.670;2023-07-02T00:51:26;19.80;99.90
27559;DHT22;15002;52.028;5.670;2023-07-02T00:53:54;19.80;99.90
27559;DHT22;15002;52.028;5.670;2023-07-02T00:56:20;19.80;99.90
27559;DHT22;15002;52.028;5.670;2023-07-02T00:58:47;19.80;99.90
27559;DHT22;15002;52.028;5.670;2023-07-02T01:01:16;19.90;99.90
27559;DHT22;15002;52.028;5.670;2023-07-02T01:04:03;19.80;99.90
27559;DHT22;15002;52.028;5.670;2023-07-02T01:06:36;19.70;99.90
27559;DHT22;15002;52.028;5.670;2023-07-02T01:09:05;19.80;99.90
27559;DHT22;15002;52.028;5.670;2023-07-02T01:11:40;19.80;99.90
27559;DHT22;15002;52.028;5.670;2023-07-02T01:14:10;19.70;99.90
27559;DHT22;15002;52.028;5.670;2023-07-02T01:16:37;19.70;99.90
27559;DHT22;15002;52.028;5.670;2023-07-02T01:21:55;19.70;99.90
27559;DHT22;15002;52.028;5.670;2023-07-02T01:24:21;19.60;99.90
27559;DHT22;15002;52.028;5.670;2023-07-02T01:26:46;19.60;99.90
27559;DHT22;15002;52.028;5.670;2023-07-02T01:29:17;19.70;99.90
27559;DHT22;15002;52.028;5.670;2023-07-02T01:31:43;19.80;99.90
27559;DHT22;15002;52.028;5.670;2023-07-02T01:34:08;19.60;99.90
27559;DHT22;15002;52.028;5.670;2023-07-02T01:36:35;19.70;99.90
27559;DHT22;15002;52.028;5.670;2023-07-02T01:39:00;19.70;99.90
27559;DHT22;15002;52.028;5.670;2023-07-02T01:41:26;19.70;99.90
27559;DHT22;15002;52.028;5.670;2023-07-02T01:43:51;19.70;99.90
27559;DHT22;15002;52.028;5.670;2023-07-02T01:46:17;19.60;99.90
27559;DHT22;15002;52.028;5.670;2023-07-02T01:48:43;19.60;99.90
27559;DHT22;15002;52.028;5.670;2023-07-02T01:51:08;19.40;99.90
27559;DHT22;15002;52.028;5.670;2023-07-02T01:53:34;19.50;99.90
27559;DHT22;15002;52.028;5.670;2023-07-02T01:55:59;19.60;99.90
27559;DHT22;15002;52.028;5.670;2023-07-02T01:58:25;19.40;99.90
27559;DHT22;15002;52.028;5.670;2023-07-02T02:00:51;19.20;99.90
27559;DHT22;15002;52.028;5.670;2023-07-02T02:03:17;19.20;99.90
27559;DHT22;15002;52.028;5.670;2023-07-02T02:05:42;19.00;99.90
27559;DHT22;15002;52.028;5.670;2023-07-02T02:08:08;19.00;99.90
27559;DHT22;15002;52.028;5.670;2023-07-02T02:10:33;18.90;99.90
27559;DHT22;15002;52.028;5.670;2023-07-02T02:12:59;19.00;99.90
27559;DHT22;15002;52.028;5.670;2023-07-02T02:15:25;18.90;99.90
27559;DHT22;15002;52.028;5.670;2023-07-02T02:17:50;18.80;99.90
27559;DHT22;15002;52.028;5.670;2023-07-02T02:20:16;18.70;99.90
27559;DHT22;15002;52.028;5.670;2023-07-02T02:22:42;18.60;99.90
27559;DHT22;15002;52.028;5.670;2023-07-02T02:25:08;18.50;99.90
27559;DHT22;15002;52.028;5.670;2023-07-02T02:27:34;18.40;99.90
27559;DHT22;15002;52.028;5.670;2023-07-02T02:30:00;18.40;99.90
27559;DHT22;15002;52.028;5.670;2023-07-02T02:32:26;18.40;99.90
27559;DHT22;15002;52.028;5.670;2023-07-02T02:34:51;18.30;99.90
27559;DHT22;15002;52.028;5.670;2023-07-02T02:37:18;18.30;99.90
27559;DHT22;15002;52.028;5.670;2023-07-02T02:39:44;18.20;99.90
27559;DHT22;15002;52.028;5.670;2023-07-02T02:42:10;18.20;99.90
27559;DHT22;15002;52.028;5.670;2023-07-02T02:44:35;18.20;99.90
27559;DHT22;15002;52.028;5.670;2023-07-02T02:47:01;18.20;99.90
27559;DHT22;15002;52.028;5.670;2023-07-02T02:49:27;18.20;99.90
27559;DHT22;15002;52.028;5.670;2023-07-02T02:51:52;18.10;99.90
27559;DHT22;15002;52.028;5.670;2023-07-02T02:54:18;18.20;99.90
27559;DHT22;15002;52.028;5.670;2023-07-02T02:56:43;18.20;99.90
27559;DHT22;15002;52.028;5.670;2023-07-02T02:59:09;18.20;99.90
27559;DHT22;15002;52.028;5.670;2023-07-02T03:01:35;18.10;99.90
27559;DHT22;15002;52.028;5.670;2023-07-02T03:04:00;18.10;99.90
27559;DHT22;15002;52.028;5.670;2023-07-02T03:06:26;18.00;99.90
27559;DHT22;15002;52.028;5.670;2023-07-02T03:08:52;18.10;99.90
27559;DHT22;15002;52.028;5.670;2023-07-02T03:11:17;18.30;99.90
27559;DHT22;15002;52.028;5.670;2023-07-02T03:13:43;18.30;99.90
27559;DHT22;15002;52.028;5.670;2023-07-02T03:16:08;18.20;99.90
27559;DHT22;15002;52.028;5.670;2023-07-02T03:18:34;18.20;99.90
27559;DHT22;15002;52.028;5.670;2023-07-02T03:21:00;18.40;99.90
27559;DHT22;15002;52.028;5.670;2023-07-02T03:23:26;18.30;99.90
27559;DHT22;15002;52.028;5.670;2023-07-02T03:25:51;18.30;99.90
27559;DHT22;15002;52.028;5.670;2023-07-02T03:28:17;18.30;99.90
27559;DHT22;15002;52.028;5.670;2023-07-02T03:30:43;18.30;99.90
27559;DHT22;15002;52.028;5.670;2023-07-02T03:33:09;18.30;99.90
27559;DHT22;15002;52.028;5.670;2023-07-02T03:35:35;18.40;99.90
27559;DHT22;15002;52.028;5.670;2023-07-02T03:38:01;18.50;99.90
27559;DHT22;15002;52.028;5.670;2023-07-02T03:40:27;18.60;99.90
27559;DHT22;15002;52.028;5.670;2023-07-02T03:42:53;18.50;99.90
27559;DHT22;15002;52.028;5.670;2023-07-02T03:45:18;18.50;99.90
27559;DHT22;15002;52.028;5.670;2023-07-02T03:47:44;18.50;99.90
27559;DHT22;15002;52.028;5.670;2023-07-02T03:50:09;18.50;99.90
27559;DHT22;15002;52.028;5.670;2023-07-02T03:52:35;18.60;99.90
27559;DHT22;15002;52.028;5.670;2023-07-02T03:55:01;18.50;99.90
27559;DHT22;15002;52.028;5.670;2023-07-02T03:57:27;18.50;99.90
27559;DHT22;15002;52.028;5.670;2023-07-02T03:59:53;18.40;99.90
27559;DHT22;15002;52.028;5.670;2023-07-02T04:02:19;18.60;99.90
27559;DHT22;15002;52.028;5.670;2023-07-02T04:04:44;18.50;99.90
27559;DHT22;15002;52.028;5.670;2023-07-02T04:07:10;18.60;99.90
27559;DHT22;15002;52.028;5.670;2023-07-02T04:09:35;18.60;99.90
27559;DHT22;15002;52.028;5.670;2023-07-02T04:12:01;18.60;99.90
27559;DHT22;15002;52.028;5.670;2023-07-02T04:14:27;18.60;99.90
27559;DHT22;15002;52.028;5.670;2023-07-02T04:16:52;18.70;99.90
27559;DHT22;15002;52.028;5.670;2023-07-02T04:19:18;18.80;99.90
27559;DHT22;15002;52.028;5.670;2023-07-02T04:21:44;18.80;99.90
27559;DHT22;15002;52.028;5.670;2023-07-02T04:24:09;18.80;99.90
27559;DHT22;15002;52.028;5.670;2023-07-02T04:26:35;18.80;99.90
27559;DHT22;15002;52.028;5.670;2023-07-02T04:29:02;18.80;99.90
27559;DHT22;15002;52.028;5.670;2023-07-02T04:31:27;19.00;99.90
27559;DHT22;15002;52.028;5.670;2023-07-02T04:33:53;19.30;99.90
27559;DHT22;15002;52.028;5.670;2023-07-02T04:36:19;19.60;99.90
27559;DHT22;15002;52.028;5.670;2023-07-02T04:38:44;19.80;99.90
27559;DHT22;15002;52.028;5.670;2023-07-02T04:41:10;20.00;99.90
27559;DHT22;15002;52.028;5.670;2023-07-02T04:43:36;20.20;99.90
27559;DHT22;15002;52.028;5.670;2023-07-02T04:46:02;20.20;99.90
27559;DHT22;15002;52.028;5.670;2023-07-02T04:48:27;20.50;99.90
27559;DHT22;15002;52.028;5.670;2023-07-02T04:50:53;20.50;99.90
27559;DHT22;15002;52.028;5.670;2023-07-02T04:53:19;20.60;99.90
27559;DHT22;15002;52.028;5.670;2023-07-02T04:55:44;20.80;99.90
27559;DHT22;15002;52.028;5.670;2023-07-02T04:58:10;20.70;99.90
27559;DHT22;15002;52.028;5.670;2023-07-02T05:00:36;20.60;99.90
27559;DHT22;15002;52.028;5.670;2023-07-02T05:03:01;20.50;99.90
27559;DHT22;15002;52.028;5.670;2023-07-02T05:05:27;20.50;99.90
27559;DHT22;15002;52.028;5.670;2023-07-02T05:07:54;20.60;99.90
27559;DHT22;15002;52.028;5.670;2023-07-02T05:10:20;20.70;99.90
27559;DHT22;15002;52.028;5.670;2023-07-02T05:12:46;20.70;99.90
27559;DHT22;15002;52.028;5.670;2023-07-02T05:15:12;20.70;99.90
27559;DHT22;15002;52.028;5.670;2023-07-02T05:17:37;20.70;99.90
27559;DHT22;15002;52.028;5.670;2023-07-02T05:20:04;20.60;99.90
27559;DHT22;15002;52.028;5.670;2023-07-02T05:22:32;20.60;99.90
27559;DHT22;15002;52.028;5.670;2023-07-02T05:24:58;20.60;99.90
27559;DHT22;15002;52.028;5.670;2023-07-02T05:27:23;20.60;99.90
27559;DHT22;15002;52.028;5.670;2023-07-02T05:29:49;20.70;99.90
27559;DHT22;15002;52.028;5.670;2023-07-02T05:32:15;20.70;99.90
27559;DHT22;15002;52.028;5.670;2023-07-02T05:34:40;20.80;99.90
27559;DHT22;15002;52.028;5.670;2023-07-02T05:37:06;21.30;99.90
27559;DHT22;15002;52.028;5.670;2023-07-02T05:39:33;21.30;99.90
27559;DHT22;15002;52.028;5.670;2023-07-02T05:41:59;21.10;99.90
27559;DHT22;15002;52.028;5.670;2023-07-02T05:44:25;21.10;99.90
27559;DHT22;15002;52.028;5.670;2023-07-02T05:46:50;21.20;99.90
27559;DHT22;15002;52.028;5.670;2023-07-02T05:49:16;21.50;99.90
27559;DHT22;15002;52.028;5.670;2023-07-02T05:51:42;21.40;99.90
27559;DHT22;15002;52.028;5.670;2023-07-02T05:54:07;21.30;99.90
27559;DHT22;15002;52.028;5.670;2023-07-02T05:56:33;21.40;99.90
27559;DHT22;15002;52.028;5.670;2023-07-02T05:58:58;21.50;99.90
27559;DHT22;15002;52.028;5.670;2023-07-02T06:01:24;21.40;99.90
27559;DHT22;15002;52.028;5.670;2023-07-02T06:03:50;21.60;99.90
27559;DHT22;15002;52.028;5.670;2023-07-02T06:06:16;21.90;99.90
27559;DHT22;15002;52.028;5.670;2023-07-02T06:08:41;21.90;99.90
27559;DHT22;15002;52.028;5.670;2023-07-02T06:11:09;22.30;99.90
27559;DHT22;15002;52.028;5.670;2023-07-02T06:13:34;22.30;99.90
27559;DHT22;15002;52.028;5.670;2023-07-02T06:16:00;22.40;99.90
27559;DHT22;15002;52.028;5.670;2023-07-02T06:18:26;21.90;99.90
27559;DHT22;15002;52.028;5.670;2023-07-02T06:20:51;22.10;99.90
27559;DHT22;15002;52.028;5.670;2023-07-02T06:23:17;22.00;99.90
27559;DHT22;15002;52.028;5.670;2023-07-02T06:25:43;22.30;99.90
27559;DHT22;15002;52.028;5.670;2023-07-02T06:28:09;22.60;99.90
27559;DHT22;15002;52.028;5.670;2023-07-02T06:30:35;22.70;99.60
27559;DHT22;15002;52.028;5.670;2023-07-02T06:33:01;22.90;99.40
27559;DHT22;15002;52.028;5.670;2023-07-02T06:35:26;22.90;97.90
27559;DHT22;15002;52.028;5.670;2023-07-02T06:37:52;23.30;97.30
27559;DHT22;15002;52.028;5.670;2023-07-02T06:40:17;23.60;96.70
27559;DHT22;15002;52.028;5.670;2023-07-02T06:42:43;23.80;95.50
27559;DHT22;15002;52.028;5.670;2023-07-02T06:45:09;24.30;95.80
27559;DHT22;15002;52.028;5.670;2023-07-02T06:47:34;24.90;94.40
27559;DHT22;15002;52.028;5.670;2023-07-02T06:50:00;25.30;93.00
27559;DHT22;15002;52.028;5.670;2023-07-02T06:52:26;25.60;91.60
27559;DHT22;15002;52.028;5.670;2023-07-02T06:54:51;26.20;90.70
27559;DHT22;15002;52.028;5.670;2023-07-02T06:57:17;25.80;90.40
27559;DHT22;15002;52.028;5.670;2023-07-02T06:59:43;25.50;90.50
27559;DHT22;15002;52.028;5.670;2023-07-02T07:02:08;25.00;91.30
27559;DHT22;15002;52.028;5.670;2023-07-02T07:04:34;24.90;91.50
27559;DHT22;15002;52.028;5.670;2023-07-02T07:07:00;24.90;91.20
27559;DHT22;15002;52.028;5.670;2023-07-02T07:09:28;25.10;91.40
27559;DHT22;15002;52.028;5.670;2023-07-02T07:11:54;25.60;90.80
27559;DHT22;15002;52.028;5.670;2023-07-02T07:14:19;25.90;90.40
27559;DHT22;15002;52.028;5.670;2023-07-02T07:16:45;26.20;89.10
27559;DHT22;15002;52.028;5.670;2023-07-02T07:19:11;26.20;87.70
27559;DHT22;15002;52.028;5.670;2023-07-02T07:21:36;26.30;88.20
27559;DHT22;15002;52.028;5.670;2023-07-02T07:24:02;27.10;85.80
27559;DHT22;15002;52.028;5.670;2023-07-02T07:26:28;27.70;84.00
27559;DHT22;15002;52.028;5.670;2023-07-02T07:28:54;27.60;81.90
27559;DHT22;15002;52.028;5.670;2023-07-02T07:31:23;27.80;81.90
27559;DHT22;15002;52.028;5.670;2023-07-02T07:33:49;28.50;78.10
27559;DHT22;15002;52.028;5.670;2023-07-02T07:36:15;28.70;78.30
27559;DHT22;15002;52.028;5.670;2023-07-02T07:38:43;28.90;77.00
27559;DHT22;15002;52.028;5.670;2023-07-02T07:41:09;29.20;73.70
27559;DHT22;15002;52.028;5.670;2023-07-02T07:43:34;28.80;73.60
27559;DHT22;15002;52.028;5.670;2023-07-02T07:46:00;28.30;73.60
27559;DHT22;15002;52.028;5.670;2023-07-02T07:48:26;28.50;74.70
27559;DHT22;15002;52.028;5.670;2023-07-02T07:50:52;28.70;73.20
27559;DHT22;15002;52.028;5.670;2023-07-02T07:53:18;29.00;71.60
27559;DHT22;15002;52.028;5.670;2023-07-02T07:55:43;29.10;71.70
27559;DHT22;15002;52.028;5.670;2023-07-02T07:58:09;29.30;70.10
27559;DHT22;15002;52.028;5.670;2023-07-02T08:00:34;28.90;70.30
27559;DHT22;15002;52.028;5.670;2023-07-02T08:03:00;28.60;69.30
27559;DHT22;15002;52.028;5.670;2023-07-02T08:05:28;27.60;72.30
27559;DHT22;15002;52.028;5.670;2023-07-02T08:07:54;27.30;74.90
27559;DHT22;15002;52.028;5.670;2023-07-02T08:10:20;27.30;75.20
27559;DHT22;15002;52.028;5.670;2023-07-02T08:12:46;27.50;74.60
27559;DHT22;15002;52.028;5.670;2023-07-02T08:15:13;27.30;74.00
27559;DHT22;15002;52.028;5.670;2023-07-02T08:17:38;27.30;72.90
27559;DHT22;15002;52.028;5.670;2023-07-02T08:20:04;27.20;73.00
27559;DHT22;15002;52.028;5.670;2023-07-02T08:22:35;26.90;73.00
27559;DHT22;15002;52.028;5.670;2023-07-02T08:25:01;26.90;73.40
27559;DHT22;15002;52.028;5.670;2023-07-02T08:27:26;27.10;72.80
27559;DHT22;15002;52.028;5.670;2023-07-02T08:29:52;27.30;72.50
27559;DHT22;15002;52.028;5.670;2023-07-02T08:32:18;27.50;72.40
27559;DHT22;15002;52.028;5.670;2023-07-02T08:34:43;27.60;70.40
27559;DHT22;15002;52.028;5.670;2023-07-02T08:37:09;27.30;70.20
27559;DHT22;15002;52.028;5.670;2023-07-02T08:39:35;27.20;71.80
27559;DHT22;15002;52.028;5.670;2023-07-02T08:42:03;27.40;69.80
27559;DHT22;15002;52.028;5.670;2023-07-02T08:44:28;27.50;67.00
27559;DHT22;15002;52.028;5.670;2023-07-02T08:46:54;27.20;68.10
27559;DHT22;15002;52.028;5.670;2023-07-02T08:49:22;27.20;68.30
27559;DHT22;15002;52.028;5.670;2023-07-02T08:51:48;26.70;69.10
27559;DHT22;15002;52.028;5.670;2023-07-02T08:54:14;26.30;70.40
27559;DHT22;15002;52.028;5.670;2023-07-02T08:56:42;26.10;71.70
27559;DHT22;15002;52.028;5.670;2023-07-02T08:59:11;26.20;70.20
27559;DHT22;15002;52.028;5.670;2023-07-02T09:01:50;26.20;70.30
27559;DHT22;15002;52.028;5.670;2023-07-02T09:04:19;26.40;70.20
27559;DHT22;15002;52.028;5.670;2023-07-02T09:06:47;26.50;69.90
27559;DHT22;15002;52.028;5.670;2023-07-02T09:09:13;26.70;70.20
27559;DHT22;15002;52.028;5.670;2023-07-02T09:11:49;26.50;70.50
27559;DHT22;15002;52.028;5.670;2023-07-02T09:14:29;26.00;71.30
27559;DHT22;15002;52.028;5.670;2023-07-02T09:17:05;25.60;71.50
27559;DHT22;15002;52.028;5.670;2023-07-02T09:19:32;25.60;70.10
27559;DHT22;15002;52.028;5.670;2023-07-02T09:21:59;25.30;72.10
27559;DHT22;15002;52.028;5.670;2023-07-02T09:24:28;25.70;70.50
27559;DHT22;15002;52.028;5.670;2023-07-02T09:26:59;26.00;70.00
27559;DHT22;15002;52.028;5.670;2023-07-02T09:29:30;25.90;68.10
27559;DHT22;15002;52.028;5.670;2023-07-02T09:32:01;25.80;66.80
27559;DHT22;15002;52.028;5.670;2023-07-02T09:34:32;25.30;67.80
27559;DHT22;15002;52.028;5.670;2023-07-02T09:36:59;25.30;67.50
27559;DHT22;15002;52.028;5.670;2023-07-02T09:39:29;25.20;67.70
27559;DHT22;15002;52.028;5.670;2023-07-02T09:41:56;25.40;68.60
27559;DHT22;15002;52.028;5.670;2023-07-02T09:44:27;25.40;67.40
27559;DHT22;15002;52.028;5.670;2023-07-02T09:47:04;24.90;66.90
27559;DHT22;15002;52.028;5.670;2023-07-02T09:49:35;24.70;68.70
27559;DHT22;15002;52.028;5.670;2023-07-02T09:52:04;24.70;68.40
27559;DHT22;15002;52.028;5.670;2023-07-02T09:54:30;24.90;68.70
27559;DHT22;15002;52.028;5.670;2023-07-02T09:56:57;25.30;69.30
27559;DHT22;15002;52.028;5.670;2023-07-02T09:59:23;25.70;67.40
27559;DHT22;15002;52.028;5.670;2023-07-02T10:01:50;25.50;65.50
27559;DHT22;15002;52.028;5.670;2023-07-02T10:04:17;25.10;65.70
27559;DHT22;15002;52.028;5.670;2023-07-02T10:06:46;24.90;66.00
27559;DHT22;15002;52.028;5.670;2023-07-02T10:09:12;25.00;66.60
27559;DHT22;15002;52.028;5.670;2023-07-02T10:11:38;25.30;66.40
27559;DHT22;15002;52.028;5.670;2023-07-02T10:14:04;25.20;65.40
27559;DHT22;15002;52.028;5.670;2023-07-02T10:16:29;25.00;65.40
27559;DHT22;15002;52.028;5.670;2023-07-02T10:19:17;25.50;65.00
27559;DHT22;15002;52.028;5.670;2023-07-02T10:21:43;25.60;64.60
27559;DHT22;15002;52.028;5.670;2023-07-02T10:24:11;25.80;64.40
27559;DHT22;15002;52.028;5.670;2023-07-02T10:26:37;25.90;63.50
27559;DHT22;15002;52.028;5.670;2023-07-02T10:29:03;26.10;64.60
27559;DHT22;15002;52.028;5.670;2023-07-02T10:31:29;26.10;63.80
27559;DHT22;15002;52.028;5.670;2023-07-02T10:33:55;26.20;63.30
27559;DHT22;15002;52.028;5.670;2023-07-02T10:36:22;25.90;63.70
27559;DHT22;15002;52.028;5.670;2023-07-02T10:38:51;26.00;63.30
27559;DHT22;15002;52.028;5.670;2023-07-02T10:43:49;26.50;61.30
27559;DHT22;15002;52.028;5.670;2023-07-02T10:46:22;26.50;61.00
27559;DHT22;15002;52.028;5.670;2023-07-02T10:48:54;26.50;60.80
27559;DHT22;15002;52.028;5.670;2023-07-02T10:51:21;26.60;61.00
27559;DHT22;15002;52.028;5.670;2023-07-02T10:53:59;26.60;60.50
27559;DHT22;15002;52.028;5.670;2023-07-02T10:56:26;26.40;61.40
27559;DHT22;15002;52.028;5.670;2023-07-02T10:58:53;26.50;60.50
27559;DHT22;15002;52.028;5.670;2023-07-02T11:01:26;26.20;60.00
27559;DHT22;15002;52.028;5.670;2023-07-02T11:04:02;26.20;61.60
27559;DHT22;15002;52.028;5.670;2023-07-02T11:06:30;26.50;59.80
27559;DHT22;15002;52.028;5.670;2023-07-02T11:08:58;26.60;60.50
27559;DHT22;15002;52.028;5.670;2023-07-02T11:11:24;26.90;60.30
27559;DHT22;15002;52.028;5.670;2023-07-02T11:13:51;26.80;60.80
27559;DHT22;15002;52.028;5.670;2023-07-02T11:16:22;26.80;60.70
27559;DHT22;15002;52.028;5.670;2023-07-02T11:18:50;26.70;60.90
27559;DHT22;15002;52.028;5.670;2023-07-02T11:21:16;26.80;59.80
27559;DHT22;15002;52.028;5.670;2023-07-02T11:23:42;26.60;60.10
27559;DHT22;15002;52.028;5.670;2023-07-02T11:26:07;26.30;60.30
27559;DHT22;15002;52.028;5.670;2023-07-02T11:28:33;26.40;60.10
27559;DHT22;15002;52.028;5.670;2023-07-02T11:31:02;26.40;60.70
27559;DHT22;15002;52.028;5.670;2023-07-02T11:33:39;26.00;60.90
27559;DHT22;15002;52.028;5.670;2023-07-02T11:36:06;26.10;60.60
27559;DHT22;15002;52.028;5.670;2023-07-02T11:38:33;26.20;59.80
27559;DHT22;15002;52.028;5.670;2023-07-02T11:40:59;26.20;60.90
27559;DHT22;15002;52.028;5.670;2023-07-02T11:43:25;26.20;60.60
27559;DHT22;15002;52.028;5.670;2023-07-02T11:45:53;26.00;59.70
27559;DHT22;15002;52.028;5.670;2023-07-02T11:48:18;26.10;59.80
27559;DHT22;15002;52.028;5.670;2023-07-02T11:50:44;26.10;60.60
27559;DHT22;15002;52.028;5.670;2023-07-02T11:53:09;25.80;59.90
27559;DHT22;15002;52.028;5.670;2023-07-02T11:55:36;26.00;60.40
27559;DHT22;15002;52.028;5.670;2023-07-02T11:58:02;26.10;60.00
27559;DHT22;15002;52.028;5.670;2023-07-02T12:00:27;25.80;60.00
27559;DHT22;15002;52.028;5.670;2023-07-02T12:02:53;25.90;60.00
27559;DHT22;15002;52.028;5.670;2023-07-02T12:05:19;26.00;59.90
27559;DHT22;15002;52.028;5.670;2023-07-02T12:07:44;26.00;60.30
27559;DHT22;15002;52.028;5.670;2023-07-02T12:10:10;26.00;60.20
27559;DHT22;15002;52.028;5.670;2023-07-02T12:12:35;26.00;59.80
27559;DHT22;15002;52.028;5.670;2023-07-02T12:15:01;25.70;59.50
27559;DHT22;15002;52.028;5.670;2023-07-02T12:17:27;25.70;61.30
27559;DHT22;15002;52.028;5.670;2023-07-02T12:19:53;25.80;61.60
27559;DHT22;15002;52.028;5.670;2023-07-02T12:22:18;26.20;60.90
27559;DHT22;15002;52.028;5.670;2023-07-02T12:24:47;26.10;61.40
27559;DHT22;15002;52.028;5.670;2023-07-02T12:27:14;26.20;60.30
27559;DHT22;15002;52.028;5.670;2023-07-02T12:29:39;25.90;60.90
27559;DHT22;15002;52.028;5.670;2023-07-02T12:32:05;26.20;60.70
27559;DHT22;15002;52.028;5.670;2023-07-02T12:34:31;26.30;60.00
27559;DHT22;15002;52.028;5.670;2023-07-02T12:36:57;26.30;59.60
27559;DHT22;15002;52.028;5.670;2023-07-02T12:39:23;26.40;59.30
27559;DHT22;15002;52.028;5.670;2023-07-02T12:41:54;26.00;59.70
27559;DHT22;15002;52.028;5.670;2023-07-02T12:44:19;26.00;60.50
27559;DHT22;15002;52.028;5.670;2023-07-02T12:46:46;26.00;60.50
27559;DHT22;15002;52.028;5.670;2023-07-02T12:49:11;26.10;61.40
27559;DHT22;15002;52.028;5.670;2023-07-02T12:51:38;26.20;60.30
27559;DHT22;15002;52.028;5.670;2023-07-02T12:54:04;26.30;60.70
27559;DHT22;15002;52.028;5.670;2023-07-02T12:56:29;26.10;59.30
27559;DHT22;15002;52.028;5.670;2023-07-02T12:58:55;26.30;59.70
27559;DHT22;15002;52.028;5.670;2023-07-02T13:01:21;26.20;60.70
27559;DHT22;15002;52.028;5.670;2023-07-02T13:03:47;26.20;61.00
27559;DHT22;15002;52.028;5.670;2023-07-02T13:06:13;26.40;61.00
27559;DHT22;15002;52.028;5.670;2023-07-02T13:08:39;26.40;60.40
27559;DHT22;15002;52.028;5.670;2023-07-02T13:11:05;26.60;61.10
27559;DHT22;15002;52.028;5.670;2023-07-02T13:13:31;26.60;60.10
27559;DHT22;15002;52.028;5.670;2023-07-02T13:15:56;26.40;60.80
27559;DHT22;15002;52.028;5.670;2023-07-02T13:18:23;26.50;61.10
27559;DHT22;15002;52.028;5.670;2023-07-02T13:20:49;26.80;61.00
27559;DHT22;15002;52.028;5.670;2023-07-02T13:23:14;26.50;60.00
27559;DHT22;15002;52.028;5.670;2023-07-02T13:25:40;26.40;60.60
27559;DHT22;15002;52.028;5.670;2023-07-02T13:28:06;25.90;61.70
27559;DHT22;15002;52.028;5.670;2023-07-02T13:30:32;26.00;61.90
27559;DHT22;15002;52.028;5.670;2023-07-02T13:32:57;26.10;60.80
27559;DHT22;15002;52.028;5.670;2023-07-02T13:35:23;25.70;61.30
27559;DHT22;15002;52.028;5.670;2023-07-02T13:37:49;25.50;62.30
27559;DHT22;15002;52.028;5.670;2023-07-02T13:40:14;25.70;61.80
27559;DHT22;15002;52.028;5.670;2023-07-02T13:42:41;25.70;62.10
27559;DHT22;15002;52.028;5.670;2023-07-02T13:45:09;25.70;62.60
27559;DHT22;15002;52.028;5.670;2023-07-02T13:47:35;25.80;62.50
27559;DHT22;15002;52.028;5.670;2023-07-02T13:50:02;25.90;62.20
27559;DHT22;15002;52.028;5.670;2023-07-02T13:52:29;25.90;62.60
27559;DHT22;15002;52.028;5.670;2023-07-02T13:54:55;25.80;62.50
27559;DHT22;15002;52.028;5.670;2023-07-02T13:57:20;25.90;62.40
27559;DHT22;15002;52.028;5.670;2023-07-02T13:59:46;25.70;63.10
27559;DHT22;15002;52.028;5.670;2023-07-02T14:02:12;25.60;63.70
27559;DHT22;15002;52.028;5.670;2023-07-02T14:04:37;25.40;63.60
27559;DHT22;15002;52.028;5.670;2023-07-02T14:07:04;25.40;63.90
27559;DHT22;15002;52.028;5.670;2023-07-02T14:09:30;25.50;64.40
27559;DHT22;15002;52.028;5.670;2023-07-02T14:11:56;25.40;64.60
27559;DHT22;15002;52.028;5.670;2023-07-02T14:14:21;25.30;64.70
27559;DHT22;15002;52.028;5.670;2023-07-02T14:16:47;25.10;64.70
27559;DHT22;15002;52.028;5.670;2023-07-02T14:19:13;25.30;65.10
27559;DHT22;15002;52.028;5.670;2023-07-02T14:21:38;25.60;65.40
27559;DHT22;15002;52.028;5.670;2023-07-02T14:24:04;25.60;64.60
27559;DHT22;15002;52.028;5.670;2023-07-02T14:26:30;25.90;63.20
27559;DHT22;15002;52.028;5.670;2023-07-02T14:28:56;25.50;63.30
27559;DHT22;15002;52.028;5.670;2023-07-02T14:31:23;25.10;63.00
27559;DHT22;15002;52.028;5.670;2023-07-02T14:33:49;25.10;64.30
27559;DHT22;15002;52.028;5.670;2023-07-02T14:36:15;25.20;64.30
27559;DHT22;15002;52.028;5.670;2023-07-02T14:38:40;25.30;62.90
27559;DHT22;15002;52.028;5.670;2023-07-02T14:41:06;25.50;62.80
27559;DHT22;15002;52.028;5.670;2023-07-02T14:43:32;25.20;63.30
27559;DHT22;15002;52.028;5.670;2023-07-02T14:46:00;25.60;63.80
27559;DHT22;15002;52.028;5.670;2023-07-02T14:48:26;25.70;64.10
27559;DHT22;15002;52.028;5.670;2023-07-02T14:50:54;25.60;63.90
27559;DHT22;15002;52.028;5.670;2023-07-02T14:53:20;25.50;63.20
27559;DHT22;15002;52.028;5.670;2023-07-02T14:55:47;25.60;61.40
27559;DHT22;15002;52.028;5.670;2023-07-02T14:58:14;25.70;60.10
27559;DHT22;15002;52.028;5.670;2023-07-02T15:00:47;25.50;59.70
27559;DHT22;15002;52.028;5.670;2023-07-02T15:03:13;25.20;60.00
27559;DHT22;15002;52.028;5.670;2023-07-02T15:05:40;25.10;59.40
27559;DHT22;15002;52.028;5.670;2023-07-02T15:08:09;25.00;60.10
27559;DHT22;15002;52.028;5.670;2023-07-02T15:10:37;24.90;60.80
27559;DHT22;15002;52.028;5.670;2023-07-02T15:13:05;24.80;61.00
27559;DHT22;15002;52.028;5.670;2023-07-02T15:15:31;25.00;61.60
27559;DHT22;15002;52.028;5.670;2023-07-02T15:17:56;24.90;61.30
27559;DHT22;15002;52.028;5.670;2023-07-02T15:20:22;25.10;61.50
27559;DHT22;15002;52.028;5.670;2023-07-02T15:22:48;25.10;60.60
27559;DHT22;15002;52.028;5.670;2023-07-02T15:25:13;24.90;62.20
27559;DHT22;15002;52.028;5.670;2023-07-02T15:27:39;25.00;61.80
27559;DHT22;15002;52.028;5.670;2023-07-02T15:30:05;25.10;62.10
27559;DHT22;15002;52.028;5.670;2023-07-02T15:32:31;24.90;61.10